Time;durP1;ratioP1;P1;durP2;ratioP2;P2;SDS_P1;SDS_P2;PMS_P1;PMS_P2;Temp;Humidity;BMP_temperature;BMP_pressure;BME280_temperature;BME280_humidity;BME280_pressure;Samples;Min_cycle;Max_cycle;Signal;HPM_P1;HPM_P2
2022/12/01 00:00:07;;;;;;;88.90;50.00;;;;;;;-0.11;87.88;99847.65;86509;1277;22470;-74
2022/12/01 00:02:29;;;;;;;95.50;52.30;;;;;;;-0.11;87.78;99845.41;86392;1287;22475;-74
2022/12/01 00:04:30;;;;;;;97.00;52.50;;;;;;;-0.10;87.90;99845.08;86314;1280;25888;-73
2022/12/01 00:06:31;;;;;;;84.50;50.80;;;;;;;-0.08;87.73;99846.84;86387;1278;99510;-73
2022/12/01 00:08:33;;;;;;;86.00;50.50;;;;;;;-0.07;87.92;99844.59;86523;1277;22799;-73
2022/12/01 00:10:34;;;;;;;93.20;50.50;;;;;;;-0.07;87.73;99846.13;86195;1283;24245;-73
2022/12/01 00:12:42;;;;;;;87.40;50.60;;;;;;;-0.06;87.89;99847.71;86371;1278;98596;-74
2022/12/01 00:14:53;;;;;;;93.50;51.30;;;;;;;-0.05;87.94;99843.05;86381;1280;22825;-72
2022/12/01 00:16:54;;;;;;;;;;;;;;;-0.05;87.95;99843.05;86560;1278;22485;-74
2022/12/01 00:18:56;;;;;;;86.50;48.50;;;;;;;-0.06;87.87;99844.77;86566;1283;84380;-73
2022/12/01 00:20:57;;;;;;;;;;;;;;;-0.07;87.76;99836.47;86599;1278;22413;-73
2022/12/01 00:22:58;;;;;;;83.20;47.30;;;;;;;-0.09;87.73;99837.15;86651;1280;22512;-73
2022/12/01 00:24:59;;;;;;;92.30;48.60;;;;;;;-0.10;87.85;99841.45;87123;1278;98672;-73
2022/12/01 00:27:00;;;;;;;83.60;48.40;;;;;;;-0.10;87.83;99843.01;86827;1287;26600;-73
2022/12/01 00:29:01;;;;;;;;;;;;;;;-0.10;87.82;99841.80;86374;1280;24293;-73
2022/12/01 00:31:07;;;;;;;91.50;48.90;;;;;;;-0.10;88.02;99843.34;86360;1285;85499;-73
2022/12/01 00:33:08;;;;;;;90.10;50.80;;;;;;;-0.10;87.87;99846.29;86447;1277;22526;-74
2022/12/01 00:35:09;;;;;;;92.70;53.00;;;;;;;-0.09;87.84;99848.04;86351;1280;22565;-74
2022/12/01 00:37:11;;;;;;;102.10;57.00;;;;;;;-0.08;87.80;99847.35;86368;1278;98244;-73
2022/12/01 00:39:12;;;;;;;96.90;54.00;;;;;;;-0.08;87.91;99843.54;86372;1287;22546;-74
2022/12/01 00:41:13;;;;;;;94.20;51.60;;;;;;;-0.11;87.99;99836.77;86283;1288;22501;-73
2022/12/01 00:43:14;;;;;;;91.20;50.70;;;;;;;-0.08;87.78;99842.68;86581;1285;98439;-73
2022/12/01 00:45:15;;;;;;;89.90;48.30;;;;;;;-0.07;88.00;99844.06;86516;1280;22530;-73
2022/12/01 00:47:16;;;;;;;87.10;46.40;;;;;;;-0.08;87.88;99845.10;86616;1285;22489;-73
2022/12/01 00:49:17;;;;;;;88.30;49.20;;;;;;;-0.06;87.86;99848.56;86313;1280;98248;-73
2022/12/01 00:51:18;;;;;;;72.30;42.50;;;;;;;-0.05;87.84;99852.73;86315;1288;25529;-73
2022/12/01 00:53:20;;;;;;;;;;;;;;;-0.08;88.01;99844.24;86342;1287;22461;-73
2022/12/01 00:55:21;;;;;;;83.10;44.10;;;;;;;-0.04;87.94;99850.16;86431;1278;85368;-73
2022/12/01 00:57:24;;;;;;;86.10;48.40;;;;;;;-0.03;88.01;99855.15;86290;1294;22474;-73
2022/12/01 00:59:25;;;;;;;90.50;48.40;;;;;;;-0.03;87.89;99848.78;86236;1286;22601;-75
2022/12/01 01:01:26;;;;;;;;;;;;;;;-0.01;87.73;99848.27;86415;1277;100234;-72
2022/12/01 01:03:28;;;;;;;76.70;43.50;;;;;;;-0.04;88.00;99844.79;86360;1278;23498;-73
2022/12/01 01:05:29;;;;;;;68.60;42.60;;;;;;;-0.01;87.98;99846.02;86577;1282;22485;-73
2022/12/01 01:07:30;;;;;;;75.90;44.10;;;;;;;-0.01;87.97;99839.29;86104;1280;99523;-73
2022/12/01 01:09:32;;;;;;;85.60;48.20;;;;;;;0.00;87.95;99837.73;86383;1285;22682;-73
2022/12/01 01:11:33;;;;;;;;;;;;;;;0.03;87.95;99839.31;86335;1281;22399;-73
2022/12/01 01:13:35;;;;;;;79.90;42.80;;;;;;;0.03;88.08;99835.68;86533;1282;85230;-73
2022/12/01 01:15:37;;;;;;;77.20;44.40;;;;;;;0.03;87.74;99834.66;86747;1277;22535;-73
2022/12/01 01:17:38;;;;;;;71.50;41.00;;;;;;;0.05;88.04;99836.04;86325;1288;22889;-73
2022/12/01 01:19:39;;;;;;;78.60;42.90;;;;;;;0.05;87.97;99834.83;86311;1280;99777;-72
2022/12/01 01:21:41;;;;;;;78.50;43.10;;;;;;;0.06;88.00;99832.09;86425;1285;26489;-74
2022/12/01 01:23:42;;;;;;;71.00;42.00;;;;;;;0.07;87.90;99831.58;86319;1280;22675;-74
2022/12/01 01:25:43;;;;;;;;;;;;;;;0.07;87.97;99830.03;86367;1278;98175;-72
2022/12/01 01:27:44;;;;;;;69.70;40.00;;;;;;;0.07;88.00;99829.50;86345;1284;22541;-71
2022/12/01 01:29:45;;;;;;;66.90;41.20;;;;;;;0.04;88.10;99818.94;86387;1286;22563;-73
2022/12/01 01:31:46;;;;;;;;;;;;;;;0.08;88.16;99828.11;86322;1280;99358;-74
2022/12/01 01:33:47;;;;;;;65.10;38.60;;;;;;;0.08;88.01;99825.70;86490;1277;22512;-74
2022/12/01 01:35:48;;;;;;;;;;;;;;;0.09;87.90;99822.27;86517;1284;22710;-73
2022/12/01 01:37:50;;;;;;;79.00;42.00;;;;;;;0.09;88.04;99816.91;86395;1278;84785;-73
2022/12/01 01:39:52;;;;;;;70.30;40.40;;;;;;;0.10;88.18;99814.50;86499;1278;22454;-74
2022/12/01 01:41:52;;;;;;;;;;;;;;;0.11;88.02;99816.58;86417;1277;25315;-73
2022/12/01 01:43:56;;;;;;;64.60;35.30;;;;;;;0.11;88.08;99812.44;86344;1277;85770;-72
2022/12/01 01:45:58;;;;;;;66.00;37.30;;;;;;;0.12;88.06;99812.77;86541;1277;22491;-73
2022/12/01 01:47:59;;;;;;;60.40;36.10;;;;;;;0.13;88.04;99812.44;86241;1280;22512;-73
2022/12/01 01:50:08;;;;;;;66.60;35.10;;;;;;;0.15;87.83;99812.28;86257;1281;99257;-73
2022/12/01 01:52:09;;;;;;;63.80;34.90;;;;;;;0.16;87.94;99811.94;86444;1280;22486;-73
2022/12/01 01:54:19;;;;;;;64.20;36.80;;;;;;;0.17;87.96;99808.48;86188;1280;24395;-73
2022/12/01 01:56:22;;;;;;;59.40;34.60;;;;;;;0.18;87.90;99804.02;86198;1285;25236;-72
2022/12/01 01:58:24;;;;;;;54.10;33.20;;;;;;;0.19;87.85;99804.02;86201;1287;22478;-73
2022/12/01 02:00:25;;;;;;;60.10;33.80;;;;;;;0.21;87.85;99801.96;85953;1288;106797;-74
2022/12/01 02:02:27;;;;;;;53.30;30.70;;;;;;;0.22;87.81;99806.80;86318;1278;23330;-73
2022/12/01 02:04:29;;;;;;;63.20;33.40;;;;;;;0.22;87.93;99812.85;86287;1277;23354;-73
2022/12/01 02:06:30;;;;;;;;;;;;;;;0.20;87.84;99800.58;86306;1278;98235;-74
2022/12/01 02:08:33;;;;;;;56.70;34.80;;;;;;;0.23;88.04;99806.98;86217;1284;23008;-74
2022/12/01 02:11:02;;;;;;;56.40;32.90;;;;;;;0.23;88.03;99806.30;86184;1277;231082;-73
2022/12/01 02:13:29;;;;;;;51.00;29.70;;;;;;;0.25;88.12;99806.83;86280;1277;100285;-72
2022/12/01 02:15:41;;;;;;;52.00;30.60;;;;;;;0.26;87.99;99801.98;86358;1281;22469;-73
2022/12/01 02:17:53;;;;;;;49.60;31.30;;;;;;;0.26;88.00;99802.68;86228;1284;25535;-72
2022/12/01 02:20:19;;;;;;;45.30;28.40;;;;;;;0.26;88.11;99801.81;86257;1277;99800;-73
2022/12/01 02:22:50;;;;;;;50.40;28.60;;;;;;;0.27;88.04;99802.52;86455;1278;22509;-73
2022/12/01 02:25:18;;;;;;;49.90;29.80;;;;;;;0.27;88.08;99800.63;86256;1277;99249;-72
2022/12/01 02:27:47;;;;;;;50.40;30.20;;;;;;;0.28;87.97;99800.98;86440;1278;23206;-72
2022/12/01 02:30:03;;;;;;;59.50;31.40;;;;;;;0.28;88.09;99802.35;86482;1283;22559;-74
2022/12/01 02:32:10;;;;;;;45.00;28.00;;;;;;;0.28;88.04;99800.45;86244;1282;99573;-73
2022/12/01 02:34:42;;;;;;;48.20;30.20;;;;;;;0.29;88.07;99804.77;86288;1282;23453;-73
2022/12/01 02:37:26;;;;;;;44.70;28.60;;;;;;;0.29;88.05;99800.98;86194;1285;98770;-73
2022/12/01 02:39:39;;;;;;;50.80;28.40;;;;;;;0.30;87.94;99802.53;86232;1284;26499;-73
2022/12/01 02:41:50;;;;;;;41.70;24.90;;;;;;;0.29;87.94;99801.66;86327;1278;22571;-72
2022/12/01 02:44:12;;;;;;;43.80;28.10;;;;;;;0.30;88.03;99802.02;86325;1277;99339;-73
2022/12/01 02:46:22;;;;;;;42.50;25.50;;;;;;;0.30;88.14;99803.92;86538;1284;22507;-72
2022/12/01 02:48:28;;;;;;;40.60;26.40;;;;;;;0.30;88.23;99799.77;86341;1281;101852;-73
2022/12/01 02:50:32;;;;;;;40.80;25.80;;;;;;;0.31;88.01;99799.45;86412;1284;22513;-73
2022/12/01 02:52:33;;;;;;;41.30;25.00;;;;;;;0.32;88.01;99794.61;87933;1285;22505;-72
2022/12/01 02:54:36;;;;;;;40.90;26.90;;;;;;;0.33;87.99;99797.55;86022;1280;99297;-72
2022/12/01 02:56:37;;;;;;;46.00;28.10;;;;;;;0.33;87.91;99797.55;86254;1284;22744;-72
2022/12/01 02:58:38;;;;;;;38.90;24.90;;;;;;;0.33;87.85;99792.36;86043;1288;23064;-72
2022/12/01 03:00:41;;;;;;;42.70;26.70;;;;;;;0.33;87.82;99793.91;86260;1286;99172;-73
2022/12/01 03:02:42;;;;;;;40.50;25.50;;;;;;;0.34;87.86;99792.01;86242;1286;24279;-73
2022/12/01 03:04:50;;;;;;;45.50;27.00;;;;;;;0.34;88.03;99796.50;86389;1277;22474;-72
2022/12/01 03:07:34;;;;;;;48.30;26.30;;;;;;;0.34;88.20;99792.71;86468;1285;98215;-73
2022/12/01 03:09:59;;;;;;;34.80;23.00;;;;;;;0.35;87.97;99788.57;86311;1282;22954;-72
2022/12/01 03:12:33;;;;;;;38.70;24.10;;;;;;;0.35;87.97;99784.77;86562;1285;25326;-73
2022/12/01 03:14:42;;;;;;;35.20;24.00;;;;;;;0.35;88.05;99785.80;86415;1281;22540;-72
2022/12/01 03:16:50;;;;;;;34.30;22.90;;;;;;;0.36;88.02;99784.25;86251;1284;27870;-72
2022/12/01 03:19:03;;;;;;;37.90;23.20;;;;;;;0.36;88.00;99782.00;86225;1281;99157;-72
2022/12/01 03:21:31;;;;;;;48.20;24.90;;;;;;;0.36;88.14;99777.88;86371;1285;22608;-72
2022/12/01 03:23:38;;;;;;;39.40;24.30;;;;;;;0.37;87.97;99782.87;86329;1277;22474;-72
2022/12/01 03:25:43;;;;;;;38.80;24.00;;;;;;;0.37;87.89;99779.92;86322;1285;99268;-72
2022/12/01 03:27:46;;;;;;;40.70;24.10;;;;;;;0.37;88.09;99786.50;86512;1278;22596;-75
2022/12/01 03:29:52;;;;;;;41.00;25.80;;;;;;;0.38;88.10;99783.75;87141;1284;22544;-73
2022/12/01 03:31:57;;;;;;;38.20;23.50;;;;;;;0.39;88.06;99784.61;86022;1280;99496;-72
2022/12/01 03:34:08;;;;;;;35.40;23.00;;;;;;;0.40;88.01;99784.10;86420;1277;22531;-72
2022/12/01 03:36:16;;;;;;;36.40;22.30;;;;;;;0.40;87.90;99785.14;86141;1280;22452;-72
2022/12/01 03:38:23;;;;;;;38.30;24.50;;;;;;;0.41;87.92;99775.81;86098;1284;99011;-71
2022/12/01 03:40:27;;;;;;;37.60;24.70;;;;;;;0.41;87.92;99776.51;86327;1277;25419;-71
2022/12/01 03:42:37;;;;;;;32.80;22.30;;;;;;;0.41;87.96;99770.63;86272;1285;100096;-72
2022/12/01 03:44:48;;;;;;;27.80;19.80;;;;;;;0.42;88.12;99770.80;86253;1281;25391;-73
2022/12/01 03:47:08;;;;;;;37.80;24.10;;;;;;;0.41;88.05;99764.58;86636;1278;24304;-73
2022/12/01 03:49:09;;;;;;;36.20;22.90;;;;;;;0.42;88.03;99763.89;86201;1277;99249;-73
2022/12/01 03:51:16;;;;;;;34.20;23.30;;;;;;;0.42;87.85;99761.48;86194;1286;27966;-72
2022/12/01 03:53:24;;;;;;;35.40;23.50;;;;;;;0.43;88.05;99761.65;86445;1285;22931;-72
2022/12/01 03:55:28;;;;;;;32.30;21.90;;;;;;;0.43;88.13;99759.91;86217;1285;99220;-72
2022/12/01 03:57:35;;;;;;;32.60;22.90;;;;;;;0.43;88.01;99760.45;86136;1280;25911;-72
2022/12/01 03:59:37;;;;;;;35.70;23.10;;;;;;;0.43;87.98;99758.70;87084;1286;25857;-73
2022/12/01 04:01:39;;;;;;;34.50;23.90;;;;;;;0.43;87.86;99754.38;86678;1285;98184;-75
2022/12/01 04:03:40;;;;;;;34.40;22.30;;;;;;;0.44;87.85;99757.33;86720;1281;22497;-74
2022/12/01 04:05:41;;;;;;;37.10;23.50;;;;;;;0.45;87.99;99754.90;86315;1283;24367;-73
2022/12/01 04:07:42;;;;;;;39.60;25.80;;;;;;;0.45;88.01;99753.02;86165;1286;98885;-72
2022/12/01 04:09:43;;;;;;;36.90;23.30;;;;;;;0.46;87.89;99751.81;86485;1278;23424;-73
2022/12/01 04:14:04;;;;;;;34.60;23.40;;;;;;;0.46;87.96;99751.47;86303;1277;99190;-71
2022/12/01 04:16:05;;;;;;;32.70;22.30;;;;;;;0.46;87.70;99752.67;86315;1284;22483;-72
2022/12/01 04:18:06;;;;;;;37.20;23.80;;;;;;;0.46;87.82;99753.19;86377;1278;25227;-72
2022/12/01 04:20:07;;;;;;;33.90;22.60;;;;;;;0.47;87.70;99752.50;86109;1287;99632;-72
2022/12/01 04:22:08;;;;;;;38.70;21.30;;;;;;;0.47;87.90;99748.02;86405;1284;23770;-72
2022/12/01 04:24:11;;;;;;;36.50;24.60;;;;;;;0.48;87.69;99750.44;86419;1278;23803;-72
2022/12/01 04:26:12;;;;;;;38.10;24.00;;;;;;;0.47;87.87;99748.52;86092;1287;99134;-71
2022/12/01 04:28:13;;;;;;;38.00;25.40;;;;;;;0.47;87.78;99750.61;86377;1285;22565;-72
2022/12/01 04:30:14;;;;;;;41.70;26.80;;;;;;;0.48;87.91;99749.56;86298;1285;24262;-72
2022/12/01 04:32:15;;;;;;;35.70;24.30;;;;;;;0.48;87.76;99749.73;86143;1277;99388;-73
2022/12/01 04:34:16;;;;;;;34.30;24.30;;;;;;;0.48;87.67;99751.12;86167;1280;22539;-73
2022/12/01 04:36:17;;;;;;;39.60;23.90;;;;;;;0.47;87.84;99749.23;86339;1284;22500;-73
2022/12/01 04:38:18;;;;;;;35.40;22.20;;;;;;;0.48;88.00;99754.58;86062;1288;99296;-73
2022/12/01 04:40:20;;;;;;;38.00;23.20;;;;;;;0.48;87.96;99753.38;86444;1285;25195;-73
2022/12/01 04:42:21;;;;;;;35.90;23.10;;;;;;;0.47;88.07;99755.97;86139;1287;22535;-73
2022/12/01 04:44:22;;;;;;;37.80;24.90;;;;;;;0.47;87.91;99752.86;86305;1285;22537;-73
2022/12/01 04:46:24;;;;;;;36.90;21.80;;;;;;;0.47;87.96;99757.17;86231;1284;25080;-73
2022/12/01 04:48:25;;;;;;;38.70;23.70;;;;;;;0.47;87.89;99754.06;86216;1277;99845;-73
2022/12/01 04:50:26;;;;;;;35.20;24.00;;;;;;;0.48;87.93;99755.63;86134;1286;22482;-73
2022/12/01 04:52:27;;;;;;;33.10;22.20;;;;;;;0.47;88.03;99752.34;86318;1278;22500;-73
2022/12/01 04:54:29;;;;;;;33.20;20.90;;;;;;;0.47;87.83;99756.32;85904;1280;99832;-73
2022/12/01 04:56:32;;;;;;;34.30;22.30;;;;;;;0.47;87.88;99755.80;86256;1284;22961;-73
2022/12/01 04:58:38;;;;;;;39.90;24.70;;;;;;;0.47;88.05;99754.40;86721;1278;22998;-73
2022/12/01 05:00:39;;;;;;;37.00;22.20;;;;;;;0.47;87.92;99753.90;86309;1284;99433;-74
2022/12/01 05:02:43;;;;;;;34.10;23.90;;;;;;;0.47;88.01;99752.17;86013;1286;22628;-73
2022/12/01 05:04:46;;;;;;;41.10;24.40;;;;;;;0.48;87.92;99753.72;86270;1277;24256;-73
2022/12/01 05:06:47;;;;;;;36.50;22.40;;;;;;;0.47;87.87;99754.75;86327;1283;98575;-73
2022/12/01 05:08:50;;;;;;;40.90;23.10;;;;;;;0.46;87.94;99754.92;86076;1280;25493;-73
2022/12/01 05:10:54;;;;;;;39.40;22.10;;;;;;;0.44;87.94;99750.93;86138;1284;22477;-72
2022/12/01 05:12:57;;;;;;;34.70;22.50;;;;;;;0.47;88.16;99757.17;86132;1280;99443;-72
2022/12/01 05:14:58;;;;;;;40.10;23.20;;;;;;;0.47;87.94;99755.45;86197;1284;23445;-72
2022/12/01 05:16:59;;;;;;;36.70;22.70;;;;;;;0.47;87.85;99758.04;86324;1284;24353;-74
2022/12/01 05:21:21;;;;;;;35.60;22.50;;;;;;;0.46;88.02;99760.45;86257;1282;22736;-73
2022/12/01 05:23:24;;;;;;;32.10;20.80;;;;;;;0.47;87.99;99764.09;86098;1287;24350;-74
2022/12/01 05:25:25;;;;;;;36.70;21.90;;;;;;;0.46;87.90;99761.84;86027;1281;99305;-73
2022/12/01 05:27:26;;;;;;;40.40;24.40;;;;;;;0.46;87.92;99759.42;86126;1280;23941;-73
2022/12/01 05:29:26;;;;;;;33.80;21.90;;;;;;;0.45;87.92;99762.01;86227;1277;23027;-72
2022/12/01 05:31:28;;;;;;;43.30;25.20;;;;;;;0.46;87.93;99763.74;86305;1278;99272;-73
2022/12/01 05:33:30;;;;;;;;;;;;;;;0.46;87.95;99769.80;86269;1286;23362;-73
2022/12/01 05:35:33;;;;;;;36.20;21.60;;;;;;;0.44;87.79;99767.01;86422;1282;22709;-74
2022/12/01 05:37:34;;;;;;;37.00;21.60;;;;;;;0.44;87.76;99768.90;86073;1283;98320;-73
2022/12/01 05:39:35;;;;;;;39.00;23.90;;;;;;;0.44;87.92;99764.76;86261;1278;24665;-74
2022/12/01 05:41:35;;;;;;;38.20;22.40;;;;;;;0.43;87.94;99768.56;86101;1284;22510;-74
2022/12/01 05:43:36;;;;;;;35.90;21.40;;;;;;;0.44;87.99;99773.23;85911;1287;98131;-73
2022/12/01 05:45:37;;;;;;;43.20;24.10;;;;;;;0.40;88.06;99767.52;86264;1282;23214;-74
2022/12/01 05:47:38;;;;;;;34.50;20.90;;;;;;;0.43;88.13;99775.14;86156;1285;22730;-73
2022/12/01 05:49:39;;;;;;;36.20;21.90;;;;;;;0.43;87.93;99773.91;86210;1281;100778;-73
2022/12/01 05:51:42;;;;;;;32.60;20.40;;;;;;;0.43;88.05;99776.34;86058;1288;25583;-73
2022/12/01 05:53:44;;;;;;;42.70;24.00;;;;;;;0.42;87.77;99776.85;86106;1283;22667;-73
2022/12/01 05:55:45;;;;;;;34.30;21.70;;;;;;;0.41;88.05;99776.52;85970;1286;99667;-73
2022/12/01 05:57:46;;;;;;;29.70;19.40;;;;;;;0.41;87.94;99781.52;86208;1278;22518;-73
2022/12/01 05:59:47;;;;;;;32.20;20.50;;;;;;;0.41;88.08;99785.84;86148;1284;26482;-73
2022/12/01 06:01:48;;;;;;;34.90;21.00;;;;;;;0.40;87.83;99790.16;86083;1284;99797;-73
2022/12/01 06:03:49;;;;;;;41.20;22.20;;;;;;;0.40;87.68;99792.75;86098;1286;22820;-73
2022/12/01 06:05:50;;;;;;;34.60;19.40;;;;;;;0.40;87.84;99795.17;86289;1277;22633;-73
2022/12/01 06:07:51;;;;;;;30.80;19.20;;;;;;;0.39;88.09;99793.08;85982;1280;98084;-73
2022/12/01 06:09:51;;;;;;;30.60;20.00;;;;;;;0.39;88.04;99793.09;86208;1284;22984;-73
2022/12/01 06:11:52;;;;;;;30.60;18.30;;;;;;;0.38;88.06;99796.02;86233;1277;22469;-72
2022/12/01 06:13:53;;;;;;;29.40;20.00;;;;;;;0.37;88.00;99797.40;86182;1284;99568;-72
2022/12/01 06:15:59;;;;;;;30.80;22.20;;;;;;;0.37;88.02;99798.60;86120;1284;22476;-74
2022/12/01 06:18:01;;;;;;;33.70;19.60;;;;;;;0.36;87.85;99800.50;86074;1288;22482;-73
2022/12/01 06:20:02;;;;;;;37.60;22.30;;;;;;;0.37;88.01;99803.63;86029;1280;100907;-75
2022/12/01 06:22:03;;;;;;;28.20;18.10;;;;;;;0.36;87.94;99801.04;86116;1277;22490;-71
2022/12/01 06:24:04;;;;;;;29.60;19.80;;;;;;;0.36;88.02;99803.96;86142;1286;22708;-72
2022/12/01 06:26:05;;;;;;;27.70;18.70;;;;;;;0.36;87.78;99803.62;86072;1284;99376;-71
2022/12/01 06:28:06;;;;;;;35.50;18.40;;;;;;;0.35;87.86;99805.86;86052;1287;22615;-72
2022/12/01 06:30:08;;;;;;;22.40;15.80;;;;;;;0.34;87.77;99806.90;86079;1277;22521;-72
2022/12/01 06:32:10;;;;;;;27.20;16.20;;;;;;;0.34;87.73;99806.71;85938;1277;99492;-73
2022/12/01 06:34:11;;;;;;;20.00;13.70;;;;;;;0.34;87.79;99811.21;85881;1280;22594;-71
2022/12/01 06:36:12;;;;;;;36.60;19.20;;;;;;;0.34;87.84;99808.09;85992;1283;22615;-71
2022/12/01 06:38:13;;;;;;;30.30;19.40;;;;;;;0.35;87.63;99810.53;85992;1283;99057;-72
2022/12/01 06:40:14;;;;;;;37.90;19.70;;;;;;;0.36;87.72;99809.84;86164;1281;23236;-72
2022/12/01 06:42:15;;;;;;;39.80;20.90;;;;;;;0.36;87.81;99811.23;86000;1284;22598;-71
2022/12/01 06:44:16;;;;;;;31.40;17.70;;;;;;;0.35;87.77;99808.62;85899;1284;99023;-73
2022/12/01 06:46:17;;;;;;;34.90;20.40;;;;;;;0.34;87.70;99808.80;85958;1277;25313;-72
2022/12/01 06:48:17;;;;;;;29.80;19.70;;;;;;;0.34;87.89;99807.06;86115;1284;26495;-71
2022/12/01 06:50:19;;;;;;;30.80;18.90;;;;;;;0.34;87.85;99808.63;85961;1279;99057;-71
2022/12/01 06:52:20;;;;;;;24.40;14.90;;;;;;;0.34;87.65;99805.16;85871;1288;23398;-72
2022/12/01 06:54:21;;;;;;;28.50;18.30;;;;;;;0.34;87.98;99807.23;85959;1288;24292;-72
2022/12/01 06:56:22;;;;;;;24.80;15.90;;;;;;;0.34;87.92;99807.92;85990;1283;99087;-72
2022/12/01 06:58:23;;;;;;;32.40;21.30;;;;;;;0.35;87.74;99809.83;86236;1285;22474;-72
2022/12/01 07:00:24;;;;;;;35.10;20.40;;;;;;;0.34;87.82;99808.09;86108;1285;99295;-72
2022/12/01 07:02:25;;;;;;;33.70;20.40;;;;;;;0.34;87.73;99811.38;86036;1287;22490;-72
2022/12/01 07:04:26;;;;;;;32.00;20.70;;;;;;;0.34;87.87;99814.84;85989;1287;22496;-73
2022/12/01 07:06:29;;;;;;;36.40;21.20;;;;;;;0.34;87.84;99813.98;86118;1284;98513;-72
2022/12/01 07:08:32;;;;;;;15.20;9.00;;;;;;;0.34;87.71;99809.98;86218;1280;22471;-72
2022/12/01 07:10:34;;;;;;;27.70;17.70;;;;;;;0.33;87.77;99810.68;86125;1280;25036;-72
2022/12/01 07:12:36;;;;;;;29.10;19.20;;;;;;;0.34;87.80;99811.38;85915;1284;100674;-72
2022/12/01 07:14:37;;;;;;;30.30;18.00;;;;;;;0.35;87.84;99811.39;85912;1287;22726;-71
2022/12/01 07:16:41;;;;;;;33.00;21.60;;;;;;;0.36;87.83;99812.09;86221;1286;22523;-74
2022/12/01 07:18:43;;;;;;;31.50;20.30;;;;;;;0.36;87.58;99810.89;86126;1287;101532;-71
2022/12/01 07:20:44;;;;;;;27.10;17.80;;;;;;;0.34;87.65;99809.31;86261;1277;24618;-72
2022/12/01 07:22:45;;;;;;;30.50;20.90;;;;;;;0.37;87.76;99810.54;86202;1278;22622;-71
2022/12/01 07:24:46;;;;;;;32.50;20.70;;;;;;;0.37;87.80;99807.95;86070;1283;99982;-71
2022/12/01 07:26:47;;;;;;;3.60;3.20;;;;;;;0.37;87.78;99806.91;86258;1285;22523;-71
2022/12/01 07:28:48;;;;;;;29.10;18.80;;;;;;;0.37;87.77;99807.09;86012;1281;23586;-71
2022/12/01 07:30:49;;;;;;;30.80;19.60;;;;;;;0.39;87.62;99807.97;86087;1285;99300;-72
2022/12/01 07:32:50;;;;;;;28.60;19.40;;;;;;;0.39;87.59;99805.02;86281;1284;22591;-71
2022/12/01 07:34:51;;;;;;;33.00;21.90;;;;;;;0.41;87.45;99802.78;86308;1292;22827;-69
2022/12/01 07:36:52;;;;;;;34.40;20.60;;;;;;;0.41;87.49;99805.21;86825;1287;98108;-72
2022/12/01 07:38:53;;;;;;;37.40;21.20;;;;;;;0.41;87.55;99806.41;86614;1284;23212;-71
2022/12/01 07:40:54;;;;;;;36.50;20.50;;;;;;;0.41;87.70;99804.35;86286;1286;22495;-71
2022/12/01 07:42:55;;;;;;;38.40;20.00;;;;;;;0.42;87.68;99811.27;86143;1278;99326;-72
2022/12/01 07:44:56;;;;;;;28.40;17.90;;;;;;;0.42;87.72;99806.59;86205;1278;22435;-72
2022/12/01 07:46:57;;;;;;;27.60;18.70;;;;;;;0.42;87.64;99806.77;86160;1285;22579;-71
2022/12/01 07:48:59;;;;;;;32.50;20.50;;;;;;;0.43;87.72;99804.17;85880;1287;99297;-70
2022/12/01 07:51:00;;;;;;;31.60;20.30;;;;;;;0.43;87.60;99808.51;86070;1283;23958;-71
2022/12/01 07:53:02;;;;;;;29.10;19.90;;;;;;;0.43;87.82;99805.73;86057;1284;25698;-70
2022/12/01 07:55:03;;;;;;;33.50;19.90;;;;;;;0.44;87.71;99807.98;86374;1284;99246;-73
2022/12/01 07:57:04;;;;;;;;;;;;;;;0.44;87.55;99804.70;86197;1294;27216;-72
2022/12/01 07:59:05;;;;;;;34.00;20.40;;;;;;;0.43;87.64;99807.11;86245;1283;22469;-71
2022/12/01 08:01:19;;;;;;;32.60;19.20;;;;;;;0.43;87.94;99802.45;86066;1284;99298;-71
2022/12/01 08:03:20;;;;;;;30.30;20.30;;;;;;;0.43;87.84;99800.55;86053;1285;25313;-71
2022/12/01 08:05:21;;;;;;;37.40;19.30;;;;;;;0.43;87.62;99798.48;86126;1277;22467;-72
2022/12/01 08:07:22;;;;;;;29.30;20.60;;;;;;;0.45;87.86;99798.48;85913;1287;99970;-71
2022/12/01 08:09:23;;;;;;;29.40;19.40;;;;;;;0.45;87.75;99809.89;86044;1283;22525;-71
2022/12/01 08:11:28;;;;;;;31.20;20.30;;;;;;;0.46;87.60;99804.02;86118;1284;22629;-72
2022/12/01 08:13:30;;;;;;;27.90;19.30;;;;;;;0.45;87.66;99802.28;86523;1285;99483;-70
2022/12/01 08:15:31;;;;;;;34.40;20.00;;;;;;;0.48;87.75;99806.45;86089;1281;22614;-71
2022/12/01 08:17:32;;;;;;;39.10;20.20;;;;;;;0.48;87.67;99811.98;86006;1288;24330;-70
2022/12/01 08:19:33;;;;;;;33.10;20.30;;;;;;;0.49;87.66;99813.38;86122;1291;99735;-70
2022/12/01 08:21:36;;;;;;;26.80;19.20;;;;;;;0.50;87.56;99814.61;86042;1285;26520;-71
2022/12/01 08:23:37;;;;;;;32.60;20.60;;;;;;;0.50;87.58;99813.91;86111;1284;22532;-71
2022/12/01 08:25:38;;;;;;;30.50;19.50;;;;;;;0.51;87.63;99813.91;85946;1283;99300;-71
2022/12/01 08:27:39;;;;;;;33.00;21.40;;;;;;;0.51;87.50;99815.64;85918;1288;22507;-73
2022/12/01 08:29:40;;;;;;;31.00;19.60;;;;;;;0.51;87.76;99818.41;86288;1284;24388;-71
2022/12/01 08:31:42;;;;;;;35.90;20.10;;;;;;;0.51;87.61;99817.20;86062;1284;100507;-72
2022/12/01 08:33:43;;;;;;;26.90;18.40;;;;;;;0.51;87.63;99820.13;86177;1289;22560;-70
2022/12/01 08:35:44;;;;;;;29.20;19.00;;;;;;;0.51;87.57;99824.45;86034;1284;23309;-73
2022/12/01 08:37:45;;;;;;;39.60;20.00;;;;;;;0.52;87.55;99824.12;86991;1286;99367;-71
2022/12/01 08:39:46;;;;;;;36.80;21.00;;;;;;;0.52;87.48;99822.91;86083;1283;25441;-71
2022/12/01 08:41:47;;;;;;;30.40;18.80;;;;;;;0.52;87.36;99828.44;86090;1278;23021;-72
2022/12/01 08:43:48;;;;;;;33.20;19.30;;;;;;;0.53;87.57;99828.96;86039;1279;99365;-72
2022/12/01 08:45:49;;;;;;;33.60;20.90;;;;;;;0.46;87.36;99819.42;85989;1284;22543;-72
2022/12/01 08:47:52;;;;;;;41.20;23.80;;;;;;;0.54;87.63;99826.55;85971;1283;23733;-72
2022/12/01 08:49:53;;;;;;;34.10;20.90;;;;;;;0.54;87.43;99832.95;85901;1285;99308;-72
2022/12/01 08:51:55;;;;;;;29.90;19.20;;;;;;;0.55;87.50;99827.60;85899;1288;26311;-71
2022/12/01 08:53:57;;;;;;;30.00;18.70;;;;;;;0.55;87.50;99834.34;86005;1282;22593;-71
2022/12/01 08:56:03;;;;;;;46.70;25.90;;;;;;;0.55;87.47;99834.86;85956;1284;99453;-71
2022/12/01 08:58:05;;;;;;;34.10;22.20;;;;;;;0.55;87.42;99833.46;86107;1283;22503;-72
2022/12/01 09:00:06;;;;;;;24.40;16.20;;;;;;;0.55;87.52;99831.58;86160;1281;25316;-72
2022/12/01 09:02:13;;;;;;;74.50;41.50;;;;;;;0.55;87.36;99833.82;86057;1284;99832;-72
2022/12/01 09:04:14;;;;;;;31.20;18.60;;;;;;;0.56;87.39;99835.05;85913;1296;25239;-71
2022/12/01 09:06:21;;;;;;;34.20;21.20;;;;;;;0.55;87.44;99830.02;86212;1281;22536;-72
2022/12/01 09:08:31;;;;;;;43.30;21.40;;;;;;;0.55;87.43;99833.83;86603;1281;99081;-72
2022/12/01 09:10:32;;;;;;;40.40;21.90;;;;;;;0.54;87.38;99835.91;85972;1285;22590;-72
2022/12/01 09:12:33;;;;;;;38.60;22.00;;;;;;;0.55;87.32;99835.71;86073;1284;99485;-72
2022/12/01 09:14:46;;;;;;;39.90;22.10;;;;;;;0.54;87.27;99834.16;86008;1284;22475;-72
2022/12/01 09:16:49;;;;;;;37.00;21.50;;;;;;;0.53;87.39;99830.01;86080;1288;22532;-71
2022/12/01 09:18:50;;;;;;;38.60;23.50;;;;;;;0.54;87.31;99829.66;86038;1294;99631;-72
2022/12/01 09:20:52;;;;;;;35.40;22.10;;;;;;;0.54;87.13;99832.42;86111;1284;24270;-71
2022/12/01 09:22:53;;;;;;;40.10;22.70;;;;;;;0.54;87.30;99828.64;86169;1284;22624;-72
2022/12/01 09:24:54;;;;;;;35.80;20.30;;;;;;;0.56;87.44;99822.40;86220;1284;99253;-72
2022/12/01 09:27:02;;;;;;;47.80;28.30;;;;;;;0.56;87.34;99819.65;86421;1290;22503;-73
2022/12/01 09:29:16;;;;;;;;;;;;;;;0.58;87.45;99820.18;86432;1284;25002;-72
2022/12/01 09:31:19;;;;;;;37.60;21.50;;;;;;;0.58;87.19;99817.06;86044;1283;85407;-71
2022/12/01 09:33:20;;;;;;;74.20;36.50;;;;;;;0.58;87.20;99817.23;86298;1284;22479;-72
2022/12/01 09:35:21;;;;;;;64.70;34.50;;;;;;;0.58;87.27;99817.40;86136;1284;22893;-71
2022/12/01 09:37:22;;;;;;;39.50;23.20;;;;;;;0.59;87.43;99818.10;86182;1281;100199;-71
2022/12/01 09:39:24;;;;;;;32.40;21.30;;;;;;;0.60;87.36;99815.17;86079;1286;22494;-72
2022/12/01 09:41:33;;;;;;;42.60;25.00;;;;;;;0.58;87.08;99814.82;86141;1277;24002;-71
2022/12/01 09:43:45;;;;;;;48.80;26.40;;;;;;;0.57;87.39;99817.73;86055;1284;99982;-72